Time;durP1;ratioP1;P1;durP2;ratioP2;P2;SDS_P1;SDS_P2;PMS_P1;PMS_P2;Temp;Humidity;BMP_temperature;BMP_pressure;BME280_temperature;BME280_humidity;BME280_pressure;Samples;Min_cycle;Max_cycle;Signal;HPM_P1;HPM_P2
2023/12/05 00:00:50;;;;;;;2.10;0.80;;;;;;;-1.09;91.85;100529.16;5074386;28;20469;-66
2023/12/05 00:03:17;;;;;;;3.17;1.57;;;;;;;-1.13;92.52;100529.81;5074155;28;20568;-66
2023/12/05 00:05:43;;;;;;;2.80;1.77;;;;;;;-1.08;92.43;100519.31;5073005;28;20440;-66
2023/12/05 00:08:10;;;;;;;6.57;2.90;;;;;;;-1.02;91.91;100518.41;5074188;28;20443;-66
2023/12/05 00:10:37;;;;;;;3.73;2.73;;;;;;;-0.98;91.95;100518.78;5074491;28;20437;-66
2023/12/05 00:13:07;;;;;;;2.77;1.53;;;;;;;-1.00;92.83;100518.22;5074217;28;20537;-66
2023/12/05 00:15:33;;;;;;;3.50;2.00;;;;;;;-0.98;92.84;100519.59;5074510;28;20453;-66
2023/12/05 00:18:00;;;;;;;6.13;1.80;;;;;;;-0.99;92.05;100519.81;5074041;28;20952;-66
2023/12/05 00:20:27;;;;;;;2.03;0.80;;;;;;;-0.98;92.52;100521.44;5073559;28;20945;-66
2023/12/05 00:22:53;;;;;;;5.33;2.93;;;;;;;-1.00;92.51;100513.69;5073820;28;20477;-66
2023/12/05 00:25:20;;;;;;;3.70;2.13;;;;;;;-0.99;92.95;100517.16;5073673;28;20564;-66
2023/12/05 00:27:46;;;;;;;3.10;1.33;;;;;;;-0.92;92.28;100517.88;5073274;28;20888;-66
2023/12/05 00:30:15;;;;;;;9.63;2.90;;;;;;;-0.95;91.86;100518.34;5073597;28;20479;-66
2023/12/05 00:32:41;;;;;;;2.00;0.90;;;;;;;-0.92;91.33;100521.34;5073468;28;20439;-66
2023/12/05 00:35:08;;;;;;;10.67;3.47;;;;;;;-0.89;91.59;100518.22;5073315;28;20485;-66
2023/12/05 00:37:35;;;;;;;3.40;2.07;;;;;;;-0.96;92.08;100520.19;5073414;28;20463;-66
2023/12/05 00:40:01;;;;;;;6.87;3.37;;;;;;;-0.94;92.23;100518.09;5073259;28;20592;-66
2023/12/05 00:42:28;;;;;;;2.93;2.00;;;;;;;-0.98;92.70;100514.25;5073443;28;20516;-66
2023/12/05 00:44:55;;;;;;;2.50;1.80;;;;;;;-0.91;92.88;100520.31;5073395;28;20558;-66
2023/12/05 00:47:23;;;;;;;6.57;3.60;;;;;;;-0.94;92.20;100514.63;5074009;28;20845;-66
2023/12/05 00:49:49;;;;;;;3.83;2.07;;;;;;;-0.95;92.16;100513.81;5073761;28;20516;-66
2023/12/05 00:52:16;;;;;;;15.30;1.93;;;;;;;-0.88;92.22;100527.84;5074146;28;20885;-66
2023/12/05 00:54:43;;;;;;;2.60;0.83;;;;;;;-0.87;91.64;100524.13;5073776;28;20536;-66
2023/12/05 00:57:09;;;;;;;4.83;1.83;;;;;;;-0.82;91.42;100512.81;5073485;28;20449;-66
2023/12/05 00:59:36;;;;;;;3.23;2.47;;;;;;;-0.84;91.41;100510.41;5074214;28;20437;-66
2023/12/05 01:02:02;;;;;;;2.67;1.60;;;;;;;-0.84;92.24;100518.38;5073786;28;21012;-66
2023/12/05 01:04:30;;;;;;;3.70;2.07;;;;;;;-0.77;92.06;100516.41;5074195;28;20484;-66
2023/12/05 01:06:57;;;;;;;5.77;1.67;;;;;;;-0.75;91.57;100516.19;5074493;28;20445;-66
2023/12/05 01:09:24;;;;;;;4.57;1.80;;;;;;;-0.78;91.71;100506.81;5074331;28;20496;-66
2023/12/05 01:11:50;;;;;;;1.80;0.50;;;;;;;-0.79;91.81;100507.06;5073959;28;20445;-66
2023/12/05 01:14:17;;;;;;;3.37;2.40;;;;;;;-0.85;92.64;100502.63;5101355;22;20496;-70
2023/12/05 01:16:44;;;;;;;5.10;4.53;;;;;;;-0.78;91.85;100504.16;5094991;28;20960;-69
2023/12/05 01:19:10;;;;;;;3.90;2.23;;;;;;;-0.77;91.51;100499.66;5096942;28;20444;-71
2023/12/05 01:21:38;;;;;;;3.80;1.70;;;;;;;-0.77;91.65;100505.78;5097273;28;20856;-70
2023/12/05 01:24:05;;;;;;;4.73;1.70;;;;;;;-0.74;91.32;100501.06;5097234;28;20583;-70
2023/12/05 01:26:32;;;;;;;3.10;1.10;;;;;;;-0.78;91.49;100501.50;5097152;28;20530;-70
2023/12/05 01:28:59;;;;;;;2.20;0.90;;;;;;;-0.72;91.14;100491.78;5097498;28;20523;-70
2023/12/05 01:31:25;;;;;;;4.23;1.40;;;;;;;-0.72;91.42;100491.78;5095649;28;20447;-70
2023/12/05 01:33:52;;;;;;;2.70;1.90;;;;;;;-0.79;91.93;100488.44;5097364;28;20466;-71
2023/12/05 01:36:19;;;;;;;2.80;1.90;;;;;;;-0.78;91.98;100493.53;5097043;28;20462;-71
2023/12/05 01:38:46;;;;;;;3.50;1.60;;;;;;;-0.74;91.68;100490.41;5096800;28;20432;-70
2023/12/05 01:41:13;;;;;;;3.20;2.13;;;;;;;-0.71;91.59;100487.28;5097252;28;20518;-70
2023/12/05 01:43:40;;;;;;;15.13;3.57;;;;;;;-0.66;90.61;100479.44;5097015;28;20464;-71
2023/12/05 01:46:07;;;;;;;10.43;4.20;;;;;;;-0.63;90.87;100485.09;5097144;28;20531;-71
2023/12/05 01:48:34;;;;;;;4.40;1.40;;;;;;;-0.74;91.90;100491.22;5097372;28;20447;-71
2023/12/05 01:51:02;;;;;;;2.13;0.83;;;;;;;-0.66;91.67;100479.44;5096722;28;20436;-71
2023/12/05 01:53:29;;;;;;;17.03;3.83;;;;;;;-0.69;91.98;100478.03;5096691;28;20531;-71
2023/12/05 01:55:58;;;;;;;2.20;0.97;;;;;;;-0.63;92.29;100487.75;5096291;28;20444;-71
2023/12/05 01:58:26;;;;;;;1.80;0.50;;;;;;;-0.62;91.54;100483.25;5096627;28;20959;-71
2023/12/05 02:00:52;;;;;;;3.47;1.70;;;;;;;-0.61;92.22;100476.91;5096552;28;20801;-71
2023/12/05 02:03:19;;;;;;;9.53;1.70;;;;;;;-0.57;91.57;100473.56;5096583;28;20468;-71
2023/12/05 02:05:46;;;;;;;8.90;2.70;;;;;;;-0.56;91.50;100479.69;5096339;28;20939;-71
2023/12/05 02:08:17;;;;;;;3.27;1.07;;;;;;;-0.60;91.57;100473.19;5096114;28;20507;-71
2023/12/05 02:10:44;;;;;;;4.77;2.83;;;;;;;-0.65;91.69;100467.78;5096714;28;20419;-70
2023/12/05 02:13:12;;;;;;;3.60;1.83;;;;;;;-0.62;91.43;100459.31;5096181;28;20929;-70
2023/12/05 02:15:39;;;;;;;2.63;1.90;;;;;;;-0.62;91.77;100459.31;5096370;28;20437;-70
2023/12/05 02:18:15;;;;;;;2.80;1.70;;;;;;;-0.60;91.10;100454.59;5096668;28;20932;-70
2023/12/05 02:20:50;;;;;;;22.43;3.40;;;;;;;-0.63;90.70;100447.88;5096119;28;20429;-70
2023/12/05 02:23:45;;;;;;;3.33;0.77;;;;;;;-0.60;90.71;100451.91;5096630;28;20412;-70
2023/12/05 02:26:24;;;;;;;2.60;1.00;;;;;;;-0.62;90.22;100446.84;5096180;28;20504;-70
2023/12/05 02:28:52;;;;;;;8.13;1.47;;;;;;;-0.62;90.37;100448.66;5094949;28;20428;-70
2023/12/05 02:31:19;;;;;;;3.00;2.00;;;;;;;-0.58;90.23;100447.16;5095897;28;20459;-70
2023/12/05 02:33:46;;;;;;;7.50;4.03;;;;;;;-0.64;89.99;100448.91;5095859;28;20569;-70
2023/12/05 02:36:20;;;;;;;4.07;2.33;;;;;;;-0.63;90.21;100447.06;5095843;28;20438;-70
2023/12/05 02:38:57;;;;;;;10.73;2.60;;;;;;;-0.59;90.60;100448.22;5095753;28;20425;-70
2023/12/05 02:41:30;;;;;;;7.50;3.13;;;;;;;-0.66;90.97;100439.56;5095595;28;20920;-69
2023/12/05 02:44:05;;;;;;;4.47;2.40;;;;;;;-0.65;91.01;100435.84;5095620;28;20492;-69
2023/12/05 02:46:34;;;;;;;6.53;3.20;;;;;;;-0.73;90.49;100436.19;5095671;28;20424;-69
2023/12/05 02:49:02;;;;;;;4.50;1.40;;;;;;;-0.78;91.46;100429.72;5095281;28;20807;-69
2023/12/05 02:51:28;;;;;;;2.00;0.70;;;;;;;-0.77;91.28;100431.31;5095562;28;20440;-69
2023/12/05 02:53:55;;;;;;;3.10;1.73;;;;;;;-0.74;90.73;100439.91;5095507;28;21056;-70
2023/12/05 02:56:22;;;;;;;2.53;1.33;;;;;;;-0.71;90.44;100437.56;5095449;28;20439;-70
2023/12/05 02:58:49;;;;;;;2.70;1.50;;;;;;;-0.75;91.70;100436.44;5095482;28;20794;-70
2023/12/05 03:01:17;;;;;;;4.10;1.20;;;;;;;-0.76;92.21;100432.94;5095482;28;20436;-70
2023/12/05 03:03:43;;;;;;;3.87;2.30;;;;;;;-0.75;92.00;100428.44;5095848;28;20560;-70
2023/12/05 03:06:10;;;;;;;3.90;2.70;;;;;;;-0.74;92.32;100421.28;5095647;28;20574;-70
2023/12/05 03:08:37;;;;;;;4.10;1.63;;;;;;;-0.68;92.50;100415.84;5095640;28;20450;-70
2023/12/05 03:11:04;;;;;;;1.97;0.80;;;;;;;-0.64;92.02;100411.69;5095224;28;20475;-69
2023/12/05 03:13:30;;;;;;;5.80;1.87;;;;;;;-0.66;91.67;100418.28;5095346;28;20523;-69
2023/12/05 03:15:57;;;;;;;5.27;2.50;;;;;;;-0.61;91.47;100421.06;5095058;28;20436;-69
2023/12/05 03:18:26;;;;;;;4.20;2.30;;;;;;;-0.58;91.86;100420.56;5095399;28;20452;-69
2023/12/05 03:20:52;;;;;;;4.53;1.33;;;;;;;-0.56;90.78;100423.81;5095039;28;20467;-69
2023/12/05 03:23:19;;;;;;;2.97;1.73;;;;;;;-0.60;91.41;100420.00;5095515;28;20471;-69
2023/12/05 03:25:46;;;;;;;4.63;2.20;;;;;;;-0.61;91.58;100413.06;5095162;28;20591;-69
2023/12/05 03:28:13;;;;;;;2.93;1.27;;;;;;;-0.57;91.28;100416.91;5094912;28;20439;-69
2023/12/05 03:30:39;;;;;;;5.17;2.50;;;;;;;-0.57;91.10;100420.34;5094858;28;20437;-69
2023/12/05 03:33:06;;;;;;;3.50;1.57;;;;;;;-0.52;90.90;100422.31;5094871;28;20443;-70
2023/12/05 03:35:34;;;;;;;7.50;2.27;;;;;;;-0.59;91.42;100426.94;5094353;28;20535;-69
2023/12/05 03:38:00;;;;;;;5.43;2.60;;;;;;;-0.69;91.04;100426.72;5095012;28;20484;-69
2023/12/05 03:40:27;;;;;;;3.50;1.80;;;;;;;-0.67;91.54;100424.63;5094580;28;20523;-69
2023/12/05 03:42:53;;;;;;;1.87;0.67;;;;;;;-0.65;91.66;100427.88;5094556;28;20527;-69
2023/12/05 03:45:20;;;;;;;3.80;1.93;;;;;;;-0.68;92.04;100426.47;5094751;28;20483;-69
2023/12/05 03:47:47;;;;;;;2.63;1.50;;;;;;;-0.68;91.38;100433.66;5094127;28;21020;-70
2023/12/05 03:50:13;;;;;;;7.10;2.10;;;;;;;-0.61;91.70;100440.47;5094586;28;20440;-70
2023/12/05 03:52:41;;;;;;;4.37;2.33;;;;;;;-0.65;91.68;100439.31;5094448;28;20468;-69
2023/12/05 03:55:08;;;;;;;2.03;0.90;;;;;;;-0.64;91.87;100440.13;5094362;28;20535;-69
2023/12/05 03:57:35;;;;;;;9.10;2.60;;;;;;;-0.62;91.81;100432.72;5093992;28;20436;-69
2023/12/05 04:00:03;;;;;;;2.50;0.90;;;;;;;-0.65;91.86;100434.00;5093927;28;21007;-70
2023/12/05 04:02:29;;;;;;;3.90;1.37;;;;;;;-0.61;92.04;100434.34;5094238;28;20432;-70
2023/12/05 04:04:56;;;;;;;7.10;1.87;;;;;;;-0.55;91.85;100428.09;5093654;28;20494;-69
2023/12/05 04:07:23;;;;;;;5.03;2.07;;;;;;;-0.52;92.18;100428.44;5094056;28;20453;-68
2023/12/05 04:09:51;;;;;;;6.70;4.43;;;;;;;-0.51;92.08;100432.72;5094034;28;20440;-69
2023/12/05 04:12:17;;;;;;;4.93;2.23;;;;;;;-0.48;92.13;100434.13;5093797;28;20948;-69
2023/12/05 04:14:44;;;;;;;8.70;3.00;;;;;;;-0.45;91.73;100428.31;5093553;28;20572;-69
2023/12/05 04:17:10;;;;;;;5.90;2.80;;;;;;;-0.53;92.48;100426.03;5094536;28;20535;-69
2023/12/05 04:19:37;;;;;;;3.40;1.33;;;;;;;-0.56;92.50;100429.16;5093625;28;20519;-69
2023/12/05 04:22:04;;;;;;;8.63;2.80;;;;;;;-0.55;91.56;100414.81;5094202;28;20480;-69
2023/12/05 04:24:30;;;;;;;10.20;4.00;;;;;;;-0.57;91.77;100414.25;5093803;28;20471;-70
2023/12/05 04:26:58;;;;;;;2.67;1.67;;;;;;;-0.59;91.94;100417.09;5094313;28;20511;-70
2023/12/05 04:29:25;;;;;;;5.13;2.93;;;;;;;-0.59;91.79;100411.78;5093727;28;20432;-70
2023/12/05 04:31:51;;;;;;;2.40;1.27;;;;;;;-0.63;91.69;100405.31;5093879;28;20531;-69
2023/12/05 04:34:18;;;;;;;3.07;2.13;;;;;;;-0.68;92.92;100402.53;5093822;28;20472;-69
2023/12/05 04:36:44;;;;;;;2.00;0.90;;;;;;;-0.69;93.31;100410.75;5093806;28;20442;-69
2023/12/05 04:39:11;;;;;;;6.50;2.70;;;;;;;-0.68;93.85;100407.06;5093852;28;20916;-70
2023/12/05 04:41:38;;;;;;;4.57;3.60;;;;;;;-0.64;93.68;100414.34;5093493;28;20436;-69
2023/12/05 04:44:06;;;;;;;9.03;2.37;;;;;;;-0.65;93.44;100410.06;5093692;28;20878;-69
2023/12/05 04:46:32;;;;;;;5.33;4.30;;;;;;;-0.61;93.60;100400.59;5093686;28;20479;-69
2023/12/05 04:48:59;;;;;;;24.87;3.93;;;;;;;-0.58;92.90;100405.41;5093703;28;20806;-69
2023/12/05 04:51:25;;;;;;;3.20;1.90;;;;;;;-0.56;93.41;100402.56;5095283;28;20444;-69
2023/12/05 04:53:52;;;;;;;3.10;2.03;;;;;;;-0.60;92.71;100410.19;5097804;28;20462;-69
2023/12/05 04:56:19;;;;;;;4.10;1.47;;;;;;;-0.62;92.75;100406.13;5097862;28;20531;-69
2023/12/05 04:58:45;;;;;;;2.83;1.83;;;;;;;-0.60;92.83;100394.22;5098156;28;20523;-69
2023/12/05 05:01:13;;;;;;;4.90;2.97;;;;;;;-0.64;92.71;100392.25;5097869;28;20432;-68
2023/12/05 05:03:40;;;;;;;3.80;2.87;;;;;;;-0.60;93.32;100396.06;5098096;28;20491;-70
2023/12/05 05:06:07;;;;;;;4.63;1.80;;;;;;;-0.60;93.12;100399.53;5097569;28;20567;-70
2023/12/05 05:08:33;;;;;;;3.40;1.80;;;;;;;-0.54;92.58;100395.13;5097544;28;20444;-71
2023/12/05 05:11:00;;;;;;;2.67;0.60;;;;;;;-0.57;92.58;100385.78;5097647;28;20440;-71
2023/12/05 05:13:26;;;;;;;3.57;2.60;;;;;;;-0.55;92.78;100390.88;5097276;28;20454;-71
2023/12/05 05:15:53;;;;;;;3.33;1.80;;;;;;;-0.54;93.07;100382.63;5097202;28;20504;-71
2023/12/05 05:18:21;;;;;;;2.93;1.60;;;;;;;-0.49;93.06;100391.78;5097493;28;20436;-71
2023/12/05 05:20:47;;;;;;;4.27;3.07;;;;;;;-0.52;93.08;100387.75;5097810;28;20451;-70
2023/12/05 05:23:14;;;;;;;2.30;1.03;;;;;;;-0.49;92.96;100403.22;5097496;28;20440;-70
2023/12/05 05:25:40;;;;;;;1.90;0.50;;;;;;;-0.51;92.73;100394.69;5097034;28;20490;-71
2023/12/05 05:28:09;;;;;;;5.30;2.83;;;;;;;-0.48;92.46;100396.88;5097840;28;20448;-70
2023/12/05 05:30:35;;;;;;;4.87;2.30;;;;;;;-0.49;92.90;100397.09;5097358;28;20440;-70
2023/12/05 05:33:02;;;;;;;2.03;0.97;;;;;;;-0.45;93.74;100399.06;5097107;28;20503;-71
2023/12/05 05:35:30;;;;;;;2.70;1.20;;;;;;;-0.45;93.61;100401.72;5097323;28;20817;-71
2023/12/05 05:37:56;;;;;;;5.17;2.63;;;;;;;-0.45;92.89;100396.41;5097227;28;20450;-70
2023/12/05 05:40:23;;;;;;;6.53;2.43;;;;;;;-0.45;92.80;100395.59;5097474;28;20772;-71
2023/12/05 05:42:49;;;;;;;3.60;2.77;;;;;;;-0.41;92.77;100396.75;5097296;28;20870;-71
2023/12/05 05:45:16;;;;;;;3.93;2.63;;;;;;;-0.47;93.26;100398.50;5096710;28;20570;-71
2023/12/05 05:47:43;;;;;;;7.37;3.73;;;;;;;-0.49;93.04;100405.06;5096802;28;20501;-71
2023/12/05 05:50:11;;;;;;;4.17;1.73;;;;;;;-0.48;92.83;100409.38;5096757;28;20527;-70
2023/12/05 05:52:41;;;;;;;3.47;1.80;;;;;;;-0.49;93.24;100416.53;5096636;28;20441;-69
2023/12/05 05:55:08;;;;;;;3.50;1.50;;;;;;;-0.45;93.09;100415.03;5096834;28;20495;-69
2023/12/05 05:57:35;;;;;;;6.43;2.90;;;;;;;-0.48;93.78;100409.38;5096925;28;20468;-69
2023/12/05 06:00:03;;;;;;;3.00;1.40;;;;;;;-0.48;93.73;100414.69;5096599;28;20451;-69
2023/12/05 06:02:29;;;;;;;5.50;1.80;;;;;;;-0.45;94.16;100400.91;5097005;28;20535;-69
2023/12/05 06:04:56;;;;;;;2.77;1.97;;;;;;;-0.41;93.76;100423.34;5096360;28;20484;-69
2023/12/05 06:07:23;;;;;;;3.47;1.87;;;;;;;-0.38;93.76;100414.91;5096261;28;20486;-69
2023/12/05 06:09:51;;;;;;;15.20;3.60;;;;;;;-0.43;93.36;100410.28;5096324;28;20444;-70
2023/12/05 06:12:18;;;;;;;5.10;2.27;;;;;;;-0.41;93.11;100416.19;5096634;28;20527;-70
2023/12/05 06:14:44;;;;;;;14.70;3.93;;;;;;;-0.38;93.17;100413.06;5096247;28;20475;-70
2023/12/05 06:17:11;;;;;;;8.93;3.87;;;;;;;-0.31;92.78;100412.91;5096410;28;20447;-70
2023/12/05 06:19:37;;;;;;;3.37;1.43;;;;;;;-0.37;92.96;100414.66;5096222;28;20520;-70
2023/12/05 06:22:04;;;;;;;1.90;0.60;;;;;;;-0.36;92.65;100413.63;5096513;28;20479;-70
2023/12/05 06:24:31;;;;;;;3.60;2.00;;;;;;;-0.35;92.51;100417.91;5095648;28;21027;-70
2023/12/05 06:26:59;;;;;;;8.90;3.17;;;;;;;-0.40;93.32;100412.50;5095719;28;21083;-70
2023/12/05 06:29:26;;;;;;;2.97;2.37;;;;;;;-0.43;93.51;100420.94;5096461;28;20444;-70
2023/12/05 06:31:52;;;;;;;3.87;2.00;;;;;;;-0.40;93.58;100423.13;5095953;28;20431;-70
2023/12/05 06:34:19;;;;;;;2.83;1.90;;;;;;;-0.36;93.17;100428.78;5095577;28;20525;-70
2023/12/05 06:36:45;;;;;;;5.30;3.23;;;;;;;-0.40;92.56;100425.81;5096258;28;20475;-70
2023/12/05 06:39:12;;;;;;;3.07;1.67;;;;;;;-0.37;92.59;100420.00;5096010;28;20440;-69
2023/12/05 06:41:39;;;;;;;6.13;3.53;;;;;;;-0.37;92.84;100409.34;5095856;28;20523;-69
2023/12/05 06:44:07;;;;;;;4.90;2.00;;;;;;;-0.32;93.08;100404.13;5096214;28;20465;-69
2023/12/05 06:46:33;;;;;;;6.83;4.10;;;;;;;-0.32;92.48;100406.00;5095715;28;20574;-69
2023/12/05 06:49:00;;;;;;;5.60;2.93;;;;;;;-0.31;92.83;100402.28;5096228;28;20782;-70
2023/12/05 06:51:27;;;;;;;5.07;2.90;;;;;;;-0.29;92.53;100408.19;5095511;28;20927;-69
2023/12/05 06:53:53;;;;;;;2.27;1.13;;;;;;;-0.28;92.60;100413.28;5095605;28;20453;-69
2023/12/05 06:56:21;;;;;;;11.40;4.97;;;;;;;-0.22;92.66;100408.03;5095815;28;20531;-69
2023/12/05 06:58:48;;;;;;;2.73;1.43;;;;;;;-0.20;92.79;100409.44;5095424;28;20470;-70
2023/12/05 07:01:16;;;;;;;6.70;1.57;;;;;;;-0.17;91.98;100409.00;5095591;28;20434;-70
2023/12/05 07:03:42;;;;;;;12.20;4.57;;;;;;;-0.17;92.14;100408.19;5095060;28;20461;-70
2023/12/05 07:06:09;;;;;;;4.13;2.50;;;;;;;-0.16;92.13;100405.28;5095374;28;20480;-71
2023/12/05 07:08:36;;;;;;;4.20;3.10;;;;;;;-0.11;91.90;100401.91;5095390;28;20928;-70
2023/12/05 07:11:03;;;;;;;2.93;1.57;;;;;;;-0.13;91.67;100401.34;5095278;28;20516;-70
2023/12/05 07:13:29;;;;;;;4.57;1.33;;;;;;;-0.19;92.33;100404.94;5101143;22;20488;-70
2023/12/05 07:15:56;;;;;;;6.37;2.20;;;;;;;-0.24;92.61;100404.81;5075436;28;20536;-70
2023/12/05 07:18:24;;;;;;;4.23;2.63;;;;;;;-0.29;92.96;100403.69;5075188;28;20976;-69
2023/12/05 07:20:51;;;;;;;8.93;2.67;;;;;;;-0.23;92.16;100395.78;5075056;28;20441;-70
2023/12/05 07:23:17;;;;;;;7.53;2.87;;;;;;;-0.21;92.17;100401.72;5074840;28;20528;-68
2023/12/05 07:25:44;;;;;;;12.87;1.80;;;;;;;-0.19;91.88;100403.06;5075358;28;20491;-70
2023/12/05 07:28:10;;;;;;;8.13;3.70;;;;;;;-0.20;91.89;100401.47;5074718;28;20533;-72
2023/12/05 07:30:37;;;;;;;3.90;2.30;;;;;;;-0.18;92.60;100407.34;5075257;28;20475;-70
2023/12/05 07:33:03;;;;;;;3.67;1.37;;;;;;;-0.11;92.11;100413.38;5074940;28;20463;-72
2023/12/05 07:35:31;;;;;;;2.83;0.90;;;;;;;-0.11;92.10;100410.69;5074632;28;20458;-70
2023/12/05 07:37:58;;;;;;;4.93;3.27;;;;;;;-0.14;92.33;100411.16;5074690;28;20508;-71
2023/12/05 07:40:24;;;;;;;5.10;1.90;;;;;;;-0.12;91.41;100421.59;5074968;28;20532;-69
2023/12/05 07:42:51;;;;;;;7.10;1.37;;;;;;;-0.10;91.19;100419.50;5074905;28;20536;-71
2023/12/05 07:45:18;;;;;;;7.03;4.40;;;;;;;-0.10;90.99;100419.50;5074515;28;20459;-71
2023/12/05 07:47:47;;;;;;;2.23;1.33;;;;;;;-0.11;91.76;100410.69;5074829;28;20516;-71
2023/12/05 07:50:14;;;;;;;2.33;1.73;;;;;;;-0.08;90.67;100417.41;5074153;28;21047;-71
2023/12/05 07:52:42;;;;;;;4.53;3.00;;;;;;;-0.12;91.59;100419.72;5074053;28;20458;-71
2023/12/05 07:55:09;;;;;;;3.40;1.57;;;;;;;-0.12;90.80;100418.94;5074266;28;20547;-71
2023/12/05 07:57:36;;;;;;;4.10;2.90;;;;;;;-0.04;90.95;100421.22;5074268;28;20437;-71
2023/12/05 08:00:04;;;;;;;8.90;2.40;;;;;;;-0.03;90.62;100425.50;5074237;28;20537;-71
2023/12/05 08:02:30;;;;;;;2.47;1.30;;;;;;;-0.03;90.94;100421.00;5073780;28;20937;-71
2023/12/05 08:04:57;;;;;;;2.70;1.63;;;;;;;-0.05;90.62;100414.28;5074168;28;20479;-71
2023/12/05 08:07:23;;;;;;;9.43;3.93;;;;;;;-0.02;91.39;100421.78;5074297;28;20579;-71
2023/12/05 08:09:51;;;;;;;4.03;2.07;;;;;;;-0.04;90.94;100418.56;5074667;28;20532;-72
2023/12/05 08:12:18;;;;;;;4.63;1.60;;;;;;;0.01;91.40;100423.19;5074502;28;20479;-72
2023/12/05 08:14:44;;;;;;;4.33;2.67;;;;;;;0.07;91.31;100411.59;5073832;28;20480;-72
2023/12/05 08:17:11;;;;;;;2.90;1.57;;;;;;;0.12;91.19;100411.69;5074436;28;20476;-73
2023/12/05 08:19:38;;;;;;;3.87;1.80;;;;;;;0.10;90.50;100416.44;5074103;28;20441;-72
2023/12/05 08:22:04;;;;;;;6.60;3.60;;;;;;;0.15;90.77;100412.03;5074232;28;20524;-73
2023/12/05 08:24:31;;;;;;;2.73;1.57;;;;;;;0.14;90.50;100413.06;5074377;28;20461;-73
2023/12/05 08:27:00;;;;;;;3.93;2.17;;;;;;;0.13;90.79;100413.28;5073135;28;20496;-72
2023/12/05 08:29:26;;;;;;;3.40;1.80;;;;;;;0.13;91.69;100419.44;5074114;28;20845;-72
2023/12/05 08:31:53;;;;;;;4.63;3.03;;;;;;;0.20;91.23;100422.78;5073902;28;20520;-72
2023/12/05 08:34:19;;;;;;;2.53;1.27;;;;;;;0.16;91.04;100418.97;5073989;28;20465;-72
2023/12/05 08:36:46;;;;;;;12.20;2.20;;;;;;;0.20;90.86;100420.09;5073522;28;20813;-72
2023/12/05 08:39:13;;;;;;;5.70;2.30;;;;;;;0.22;90.62;100425.19;5074167;28;20469;-74
2023/12/05 08:41:39;;;;;;;13.17;2.33;;;;;;;0.23;90.64;100429.50;5074208;28;20445;-72
2023/12/05 08:44:07;;;;;;;5.40;3.83;;;;;;;0.27;90.88;100421.81;5074178;28;20457;-72
2023/12/05 08:46:34;;;;;;;6.80;2.93;;;;;;;0.27;90.92;100432.47;5073864;28;20489;-72
2023/12/05 08:49:00;;;;;;;4.83;3.83;;;;;;;0.30;90.71;100421.34;5073543;28;20451;-72
2023/12/05 08:51:27;;;;;;;5.10;2.27;;;;;;;0.41;90.91;100426.66;5073957;28;20520;-72
2023/12/05 08:53:54;;;;;;;5.37;2.93;;;;;;;0.37;90.53;100430.03;5073707;28;20457;-72
2023/12/05 08:56:20;;;;;;;4.87;2.50;;;;;;;0.43;90.64;100431.72;5073934;28;20524;-72
2023/12/05 08:58:47;;;;;;;7.80;4.97;;;;;;;0.47;90.14;100424.88;5074381;28;20449;-72
2023/12/05 09:01:15;;;;;;;4.10;2.80;;;;;;;0.53;90.45;100429.25;5073560;28;20928;-72
2023/12/05 09:03:42;;;;;;;5.20;2.93;;;;;;;0.57;89.76;100432.25;5073375;28;20998;-72
2023/12/05 09:06:09;;;;;;;7.53;3.00;;;;;;;0.60;89.60;100435.25;5055971;28;20508;-72
2023/12/05 09:08:36;;;;;;;2.50;1.80;;;;;;;0.57;89.60;100430.38;5073788;28;20441;-72
2023/12/05 09:11:02;;;;;;;3.23;1.20;;;;;;;0.57;90.19;100440.25;5073520;28;20929;-72
2023/12/05 09:13:29;;;;;;;4.20;1.80;;;;;;;0.59;89.48;100443.50;5073122;28;21017;-73
2023/12/05 09:15:56;;;;;;;5.40;2.50;;;;;;;0.59;89.95;100438.97;5074189;28;20487;-73
2023/12/05 09:18:24;;;;;;;7.30;2.90;;;;;;;0.62;89.51;100437.66;5073782;28;20434;-72
2023/12/05 09:20:50;;;;;;;4.57;2.30;;;;;;;0.66;89.50;100431.63;5074064;28;20455;-72
2023/12/05 09:23:17;;;;;;;6.50;3.33;;;;;;;0.75;89.13;100434.72;5073651;28;20536;-72
2023/12/05 09:25:44;;;;;;;9.93;4.30;;;;;;;0.82;89.26;100440.72;5073976;28;20437;-72
2023/12/05 09:28:11;;;;;;;5.97;2.20;;;;;;;0.80;89.34;100434.00;5086613;28;20461;-73
2023/12/05 09:30:38;;;;;;;6.00;3.33;;;;;;;0.90;88.95;100444.84;5095733;28;20503;-73
2023/12/05 09:33:04;;;;;;;6.23;3.10;;;;;;;0.92;88.48;100440.06;5095952;28;20437;-73
2023/12/05 09:35:32;;;;;;;7.53;4.20;;;;;;;0.96;88.20;100436.69;5095842;28;20449;-73
2023/12/05 09:37:59;;;;;;;7.17;2.77;;;;;;;0.99;88.32;100430.88;5098374;28;20470;-73
2023/12/05 09:40:26;;;;;;;4.13;2.37;;;;;;;0.96;89.12;100434.00;5097557;28;20463;-73
2023/12/05 09:42:55;;;;;;;9.03;2.67;;;;;;;0.99;88.11;100428.22;5077159;28;20435;-73
2023/12/05 09:45:24;;;;;;;11.73;4.73;;;;;;;1.00;87.61;100432.47;5077176;28;20568;-73
2023/12/05 09:47:53;;;;;;;4.00;3.23;;;;;;;1.04;87.60;100418.69;5077301;28;20492;-73
2023/12/05 09:50:21;;;;;;;10.10;3.43;;;;;;;1.07;87.71;100428.88;5076995;28;20528;-73
2023/12/05 09:52:49;;;;;;;4.40;2.40;;;;;;;0.99;87.16;100422.88;5077015;28;20524;-73
2023/12/05 09:55:17;;;;;;;4.30;2.77;;;;;;;0.93;87.90;100417.69;5076759;28;20549;-73
2023/12/05 09:57:45;;;;;;;9.00;4.13;;;;;;;0.92;88.35;100419.53;5076878;28;20460;-73
2023/12/05 10:00:12;;;;;;;3.67;3.00;;;;;;;0.95;88.63;100416.41;5076239;28;20527;-72
2023/12/05 10:02:41;;;;;;;3.60;1.80;;;;;;;0.95;88.88;100415.59;5076689;28;20459;-72
2023/12/05 10:05:12;;;;;;;9.00;2.53;;;;;;;0.95;89.73;100411.06;5075895;28;20988;-72
2023/12/05 10:07:39;;;;;;;6.17;3.30;;;;;;;0.93;89.10;100415.84;5076528;28;20469;-72
2023/12/05 10:10:09;;;;;;;2.57;1.30;;;;;;;0.92;89.35;100411.53;5076092;28;20532;-72
2023/12/05 10:12:37;;;;;;;8.03;2.00;;;;;;;0.85;88.62;100405.59;5076266;28;20559;-72
2023/12/05 10:15:05;;;;;;;5.40;2.70;;;;;;;0.80;89.47;100402.00;5075723;28;20473;-72
2023/12/05 10:17:33;;;;;;;3.27;2.47;;;;;;;0.84;89.91;100401.31;5076446;28;20441;-73
2023/12/05 10:20:00;;;;;;;5.33;3.70;;;;;;;0.91;89.21;100401.94;5076034;28;20510;-73
2023/12/05 10:22:26;;;;;;;2.97;1.37;;;;;;;0.85;88.80;100400.25;5076272;28;20482;-73
2023/12/05 10:24:55;;;;;;;5.00;2.20;;;;;;;0.87;89.70;100402.66;5075915;28;20540;-73
2023/12/05 10:27:23;;;;;;;4.07;2.20;;;;;;;0.88;89.24;100404.28;5075798;28;20584;-73
2023/12/05 10:29:50;;;;;;;5.87;3.47;;;;;;;0.85;89.50;100394.91;5076137;28;20451;-72
2023/12/05 10:32:17;;;;;;;3.83;1.97;;;;;;;0.84;89.36;100392.47;5075848;28;20484;-72
2023/12/05 10:34:48;;;;;;;6.13;3.03;;;;;;;0.84;90.00;100384.47;5075795;28;20821;-73
2023/12/05 10:37:16;;;;;;;6.50;3.10;;;;;;;0.90;89.77;100387.00;5076074;28;20448;-72
2023/12/05 10:39:43;;;;;;;3.57;2.97;;;;;;;0.98;89.26;100385.78;5076018;28;20480;-72
2023/12/05 10:42:09;;;;;;;2.43;1.67;;;;;;;0.98;89.48;100380.47;5075449;28;20453;-72
2023/12/05 10:44:39;;;;;;;5.50;3.97;;;;;;;1.02;89.02;100384.25;5075175;28;20905;-73
2023/12/05 10:47:07;;;;;;;4.17;2.93;;;;;;;0.97;89.85;100382.31;5075476;28;20558;-73
2023/12/05 10:49:34;;;;;;;3.07;2.20;;;;;;;0.97;89.67;100381.50;5074631;28;20437;-73
2023/12/05 10:52:03;;;;;;;10.60;3.30;;;;;;;0.99;89.67;100377.53;5075357;28;20438;-73
2023/12/05 10:54:30;;;;;;;3.10;2.30;;;;;;;1.04;89.75;100368.81;5075375;28;20473;-72
2023/12/05 10:56:57;;;;;;;5.63;3.40;;;;;;;1.09;89.55;100374.22;5075646;28;20761;-73
2023/12/05 10:59:26;;;;;;;4.50;2.43;;;;;;;1.00;88.45;100371.16;5075273;28;20446;-73
2023/12/05 11:01:55;;;;;;;2.60;1.40;;;;;;;0.97;89.02;100374.31;5057341;28;20442;-73
2023/12/05 11:04:22;;;;;;;4.63;2.87;;;;;;;0.99;89.26;100371.41;5075030;28;20467;-73
2023/12/05 11:06:49;;;;;;;9.10;2.67;;;;;;;1.07;89.60;100375.53;5075069;28;20568;-73
2023/12/05 11:09:16;;;;;;;2.70;1.63;;;;;;;1.07;90.09;100371.00;5075121;28;20968;-73
2023/12/05 11:11:46;;;;;;;6.77;2.87;;;;;;;1.06;90.70;100363.22;5074905;28;20441;-73
2023/12/05 11:14:15;;;;;;;10.63;5.00;;;;;;;1.08;91.66;100364.63;5074405;28;20561;-73
2023/12/05 11:16:49;;;;;;;4.73;1.97;;;;;;;1.15;91.44;100364.44;5074621;28;20967;-74
2023/12/05 11:19:27;;;;;;;3.63;1.53;;;;;;;1.20;91.78;100354.66;5075270;28;20808;-76
2023/12/05 11:22:04;;;;;;;3.70;2.47;;;;;;;1.15;92.56;100351.09;5074626;28;20996;-73
2023/12/05 11:24:50;;;;;;;3.20;1.77;;;;;;;1.20;92.90;100360.00;5074386;28;21027;-73
2023/12/05 11:27:35;;;;;;;3.60;2.20;;;;;;;1.17;92.14;100355.16;5074788;28;20483;-73